sensor_id;sensor_type;location;lat;lon;timestamp;P1;durP1;ratioP1;P2;durP2;ratioP2
52380;SDS011;38310;52.796;6.942;2023-06-10T00:01:55;10.48;;;5.32;;
52380;SDS011;38310;52.796;6.942;2023-06-10T00:04:25;10.38;;;5.82;;
52380;SDS011;38310;52.796;6.942;2023-06-10T00:06:51;10.32;;;5.43;;
52380;SDS011;38310;52.796;6.942;2023-06-10T00:09:18;9.35;;;5.72;;
52380;SDS011;38310;52.796;6.942;2023-06-10T00:11:46;10.63;;;5.97;;
52380;SDS011;38310;52.796;6.942;2023-06-10T00:14:12;11.15;;;5.95;;
52380;SDS011;38310;52.796;6.942;2023-06-10T00:16:38;10.40;;;5.70;;
52380;SDS011;38310;52.796;6.942;2023-06-10T00:19:04;10.23;;;5.80;;
52380;SDS011;38310;52.796;6.942;2023-06-10T00:21:31;11.80;;;5.68;;
52380;SDS011;38310;52.796;6.942;2023-06-10T00:24:05;13.10;;;6.40;;
52380;SDS011;38310;52.796;6.942;2023-06-10T00:26:34;9.63;;;6.45;;
52380;SDS011;38310;52.796;6.942;2023-06-10T00:29:00;10.05;;;6.30;;
52380;SDS011;38310;52.796;6.942;2023-06-10T00:31:25;10.23;;;6.70;;
52380;SDS011;38310;52.796;6.942;2023-06-10T00:33:55;11.15;;;6.70;;
52380;SDS011;38310;52.796;6.942;2023-06-10T00:36:21;11.65;;;6.88;;
52380;SDS011;38310;52.796;6.942;2023-06-10T00:38:46;11.65;;;7.70;;
52380;SDS011;38310;52.796;6.942;2023-06-10T00:41:12;11.20;;;6.65;;
52380;SDS011;38310;52.796;6.942;2023-06-10T00:43:39;10.65;;;7.05;;
52380;SDS011;38310;52.796;6.942;2023-06-10T00:46:05;12.05;;;7.63;;
52380;SDS011;38310;52.796;6.942;2023-06-10T00:48:31;12.15;;;7.45;;
52380;SDS011;38310;52.796;6.942;2023-06-10T00:50:57;10.35;;;6.97;;
52380;SDS011;38310;52.796;6.942;2023-06-10T00:53:24;9.80;;;7.15;;
52380;SDS011;38310;52.796;6.942;2023-06-10T00:55:50;9.38;;;6.80;;
52380;SDS011;38310;52.796;6.942;2023-06-10T00:58:16;9.95;;;7.35;;
52380;SDS011;38310;52.796;6.942;2023-06-10T01:00:42;11.80;;;7.57;;
52380;SDS011;38310;52.796;6.942;2023-06-10T01:03:10;9.45;;;6.90;;
52380;SDS011;38310;52.796;6.942;2023-06-10T01:05:37;12.40;;;7.70;;
52380;SDS011;38310;52.796;6.942;2023-06-10T01:08:09;11.13;;;6.50;;
52380;SDS011;38310;52.796;6.942;2023-06-10T01:10:57;9.48;;;6.80;;
52380;SDS011;38310;52.796;6.942;2023-06-10T01:13:26;9.75;;;6.97;;
52380;SDS011;38310;52.796;6.942;2023-06-10T01:15:54;11.75;;;7.05;;
52380;SDS011;38310;52.796;6.942;2023-06-10T01:18:21;12.27;;;7.55;;
52380;SDS011;38310;52.796;6.942;2023-06-10T01:20:47;12.07;;;6.95;;
52380;SDS011;38310;52.796;6.942;2023-06-10T01:23:14;10.00;;;6.75;;
52380;SDS011;38310;52.796;6.942;2023-06-10T01:25:53;14.30;;;7.85;;
52380;SDS011;38310;52.796;6.942;2023-06-10T01:33:49;11.05;;;7.07;;
52380;SDS011;38310;52.796;6.942;2023-06-10T01:36:18;12.45;;;7.18;;
52380;SDS011;38310;52.796;6.942;2023-06-10T01:38:47;13.20;;;7.65;;
52380;SDS011;38310;52.796;6.942;2023-06-10T01:41:18;14.75;;;8.23;;
52380;SDS011;38310;52.796;6.942;2023-06-10T01:43:46;12.27;;;8.02;;
52380;SDS011;38310;52.796;6.942;2023-06-10T01:46:12;10.82;;;8.23;;
52380;SDS011;38310;52.796;6.942;2023-06-10T01:48:38;9.75;;;8.13;;
52380;SDS011;38310;52.796;6.942;2023-06-10T01:51:04;11.93;;;6.88;;
52380;SDS011;38310;52.796;6.942;2023-06-10T01:53:30;13.10;;;7.47;;
52380;SDS011;38310;52.796;6.942;2023-06-10T01:55:56;11.77;;;7.75;;
52380;SDS011;38310;52.796;6.942;2023-06-10T01:58:22;12.45;;;7.90;;
52380;SDS011;38310;52.796;6.942;2023-06-10T02:00:47;11.85;;;7.50;;
52380;SDS011;38310;52.796;6.942;2023-06-10T02:03:13;13.13;;;7.45;;
52380;SDS011;38310;52.796;6.942;2023-06-10T02:05:39;13.45;;;7.20;;
52380;SDS011;38310;52.796;6.942;2023-06-10T02:08:05;11.63;;;7.80;;
52380;SDS011;38310;52.796;6.942;2023-06-10T02:10:30;15.35;;;7.45;;
52380;SDS011;38310;52.796;6.942;2023-06-10T02:12:56;11.50;;;7.53;;
52380;SDS011;38310;52.796;6.942;2023-06-10T02:15:22;11.20;;;7.40;;
52380;SDS011;38310;52.796;6.942;2023-06-10T02:17:48;11.15;;;8.30;;
52380;SDS011;38310;52.796;6.942;2023-06-10T02:20:14;11.90;;;8.18;;
52380;SDS011;38310;52.796;6.942;2023-06-10T02:22:40;11.27;;;7.80;;
52380;SDS011;38310;52.796;6.942;2023-06-10T02:25:06;12.25;;;8.13;;
52380;SDS011;38310;52.796;6.942;2023-06-10T02:27:32;11.07;;;7.70;;
52380;SDS011;38310;52.796;6.942;2023-06-10T02:29:58;11.48;;;7.70;;
52380;SDS011;38310;52.796;6.942;2023-06-10T02:32:23;12.43;;;7.47;;
52380;SDS011;38310;52.796;6.942;2023-06-10T02:34:50;13.23;;;7.38;;
52380;SDS011;38310;52.796;6.942;2023-06-10T02:37:16;9.90;;;7.05;;
52380;SDS011;38310;52.796;6.942;2023-06-10T02:39:42;14.02;;;7.75;;
52380;SDS011;38310;52.796;6.942;2023-06-10T02:42:08;12.32;;;7.82;;
52380;SDS011;38310;52.796;6.942;2023-06-10T02:44:35;12.45;;;8.52;;
52380;SDS011;38310;52.796;6.942;2023-06-10T02:47:00;12.57;;;7.80;;
52380;SDS011;38310;52.796;6.942;2023-06-10T02:49:26;13.75;;;7.97;;
52380;SDS011;38310;52.796;6.942;2023-06-10T02:51:55;10.93;;;8.07;;
52380;SDS011;38310;52.796;6.942;2023-06-10T02:54:22;15.20;;;8.38;;
52380;SDS011;38310;52.796;6.942;2023-06-10T02:56:48;11.95;;;9.20;;
52380;SDS011;38310;52.796;6.942;2023-06-10T02:59:14;12.90;;;8.02;;
52380;SDS011;38310;52.796;6.942;2023-06-10T03:01:40;12.43;;;7.75;;
52380;SDS011;38310;52.796;6.942;2023-06-10T03:04:07;10.68;;;7.63;;
52380;SDS011;38310;52.796;6.942;2023-06-10T03:06:33;14.90;;;8.63;;
52380;SDS011;38310;52.796;6.942;2023-06-10T03:09:00;12.68;;;7.60;;
52380;SDS011;38310;52.796;6.942;2023-06-10T03:11:29;12.82;;;8.18;;
52380;SDS011;38310;52.796;6.942;2023-06-10T03:13:55;13.93;;;7.78;;
52380;SDS011;38310;52.796;6.942;2023-06-10T03:16:21;11.18;;;7.88;;
52380;SDS011;38310;52.796;6.942;2023-06-10T03:18:47;12.82;;;8.80;;
52380;SDS011;38310;52.796;6.942;2023-06-10T03:21:14;9.38;;;7.00;;
52380;SDS011;38310;52.796;6.942;2023-06-10T03:23:39;12.77;;;7.50;;
52380;SDS011;38310;52.796;6.942;2023-06-10T03:26:05;13.32;;;8.00;;
52380;SDS011;38310;52.796;6.942;2023-06-10T03:28:31;13.52;;;8.05;;
52380;SDS011;38310;52.796;6.942;2023-06-10T03:30:57;9.88;;;7.30;;
52380;SDS011;38310;52.796;6.942;2023-06-10T03:33:22;12.20;;;7.43;;
52380;SDS011;38310;52.796;6.942;2023-06-10T03:35:48;12.00;;;8.18;;
52380;SDS011;38310;52.796;6.942;2023-06-10T03:38:15;9.93;;;7.68;;
52380;SDS011;38310;52.796;6.942;2023-06-10T03:40:41;16.65;;;8.40;;
52380;SDS011;38310;52.796;6.942;2023-06-10T03:43:07;11.50;;;6.97;;
52380;SDS011;38310;52.796;6.942;2023-06-10T03:45:32;10.60;;;7.47;;
52380;SDS011;38310;52.796;6.942;2023-06-10T03:47:58;12.13;;;7.35;;
52380;SDS011;38310;52.796;6.942;2023-06-10T03:50:25;12.80;;;8.15;;
52380;SDS011;38310;52.796;6.942;2023-06-10T03:52:51;12.32;;;7.75;;
52380;SDS011;38310;52.796;6.942;2023-06-10T03:55:17;14.40;;;7.93;;
52380;SDS011;38310;52.796;6.942;2023-06-10T03:57:43;12.20;;;7.85;;
52380;SDS011;38310;52.796;6.942;2023-06-10T04:00:09;12.32;;;8.13;;
52380;SDS011;38310;52.796;6.942;2023-06-10T04:02:37;10.63;;;6.90;;
52380;SDS011;38310;52.796;6.942;2023-06-10T04:05:02;11.90;;;7.88;;
52380;SDS011;38310;52.796;6.942;2023-06-10T04:07:29;13.13;;;7.95;;
52380;SDS011;38310;52.796;6.942;2023-06-10T04:09:56;12.55;;;8.23;;
52380;SDS011;38310;52.796;6.942;2023-06-10T04:12:22;14.20;;;7.82;;
52380;SDS011;38310;52.796;6.942;2023-06-10T04:14:47;12.77;;;7.88;;
52380;SDS011;38310;52.796;6.942;2023-06-10T04:17:13;12.05;;;8.07;;
52380;SDS011;38310;52.796;6.942;2023-06-10T04:19:39;13.73;;;8.23;;
52380;SDS011;38310;52.796;6.942;2023-06-10T04:22:05;14.10;;;7.95;;
52380;SDS011;38310;52.796;6.942;2023-06-10T04:24:31;10.88;;;7.85;;
52380;SDS011;38310;52.796;6.942;2023-06-10T04:26:57;9.98;;;7.82;;
52380;SDS011;38310;52.796;6.942;2023-06-10T04:29:22;15.75;;;8.48;;
52380;SDS011;38310;52.796;6.942;2023-06-10T04:31:49;13.07;;;8.45;;
52380;SDS011;38310;52.796;6.942;2023-06-10T04:34:15;14.90;;;8.00;;
52380;SDS011;38310;52.796;6.942;2023-06-10T04:36:41;12.45;;;8.30;;
52380;SDS011;38310;52.796;6.942;2023-06-10T04:39:07;15.27;;;8.43;;
52380;SDS011;38310;52.796;6.942;2023-06-10T04:41:33;14.48;;;7.90;;
52380;SDS011;38310;52.796;6.942;2023-06-10T04:43:58;11.50;;;8.10;;
52380;SDS011;38310;52.796;6.942;2023-06-10T04:46:24;15.57;;;8.55;;
52380;SDS011;38310;52.796;6.942;2023-06-10T04:48:50;17.20;;;8.93;;
52380;SDS011;38310;52.796;6.942;2023-06-10T04:51:16;13.05;;;8.75;;
52380;SDS011;38310;52.796;6.942;2023-06-10T04:53:41;15.80;;;8.43;;
52380;SDS011;38310;52.796;6.942;2023-06-10T04:56:07;13.45;;;8.65;;
52380;SDS011;38310;52.796;6.942;2023-06-10T04:58:34;15.02;;;8.13;;
52380;SDS011;38310;52.796;6.942;2023-06-10T05:00:59;13.45;;;8.77;;
52380;SDS011;38310;52.796;6.942;2023-06-10T05:03:25;13.32;;;8.85;;
52380;SDS011;38310;52.796;6.942;2023-06-10T05:05:51;12.75;;;7.90;;
52380;SDS011;38310;52.796;6.942;2023-06-10T05:08:17;13.85;;;8.85;;
52380;SDS011;38310;52.796;6.942;2023-06-10T05:10:43;12.13;;;8.57;;
52380;SDS011;38310;52.796;6.942;2023-06-10T05:13:09;13.40;;;8.48;;
52380;SDS011;38310;52.796;6.942;2023-06-10T05:15:35;13.85;;;8.90;;
52380;SDS011;38310;52.796;6.942;2023-06-10T05:18:00;13.45;;;9.20;;
52380;SDS011;38310;52.796;6.942;2023-06-10T05:20:29;12.02;;;8.82;;
52380;SDS011;38310;52.796;6.942;2023-06-10T05:22:55;12.05;;;8.85;;
52380;SDS011;38310;52.796;6.942;2023-06-10T05:25:21;15.52;;;9.60;;
52380;SDS011;38310;52.796;6.942;2023-06-10T05:27:47;15.15;;;9.50;;
52380;SDS011;38310;52.796;6.942;2023-06-10T05:30:12;14.32;;;9.00;;
52380;SDS011;38310;52.796;6.942;2023-06-10T05:32:38;15.20;;;9.23;;
52380;SDS011;38310;52.796;6.942;2023-06-10T05:35:04;14.00;;;9.00;;
52380;SDS011;38310;52.796;6.942;2023-06-10T05:37:31;14.73;;;9.18;;
52380;SDS011;38310;52.796;6.942;2023-06-10T05:39:58;14.25;;;8.88;;
52380;SDS011;38310;52.796;6.942;2023-06-10T05:42:24;15.05;;;9.18;;
52380;SDS011;38310;52.796;6.942;2023-06-10T05:44:50;16.40;;;8.98;;
52380;SDS011;38310;52.796;6.942;2023-06-10T05:47:15;16.00;;;9.75;;
52380;SDS011;38310;52.796;6.942;2023-06-10T05:49:41;11.98;;;8.70;;
52380;SDS011;38310;52.796;6.942;2023-06-10T05:52:07;19.02;;;8.65;;
52380;SDS011;38310;52.796;6.942;2023-06-10T05:54:32;13.38;;;8.48;;
52380;SDS011;38310;52.796;6.942;2023-06-10T05:56:58;12.75;;;8.60;;
52380;SDS011;38310;52.796;6.942;2023-06-10T05:59:24;14.10;;;8.20;;
52380;SDS011;38310;52.796;6.942;2023-06-10T06:01:50;13.52;;;8.00;;
52380;SDS011;38310;52.796;6.942;2023-06-10T06:04:16;13.18;;;8.15;;
52380;SDS011;38310;52.796;6.942;2023-06-10T06:06:41;13.25;;;8.20;;
52380;SDS011;38310;52.796;6.942;2023-06-10T06:09:07;11.60;;;8.18;;
52380;SDS011;38310;52.796;6.942;2023-06-10T06:11:33;11.82;;;8.63;;
52380;SDS011;38310;52.796;6.942;2023-06-10T06:14:00;16.27;;;8.32;;
52380;SDS011;38310;52.796;6.942;2023-06-10T06:16:26;15.85;;;8.75;;
52380;SDS011;38310;52.796;6.942;2023-06-10T06:18:51;13.15;;;8.60;;
52380;SDS011;38310;52.796;6.942;2023-06-10T06:21:17;13.65;;;8.55;;
52380;SDS011;38310;52.796;6.942;2023-06-10T06:23:43;11.32;;;8.18;;
52380;SDS011;38310;52.796;6.942;2023-06-10T06:26:08;12.77;;;7.70;;
52380;SDS011;38310;52.796;6.942;2023-06-10T06:28:34;14.38;;;7.63;;
52380;SDS011;38310;52.796;6.942;2023-06-10T06:31:00;13.93;;;8.30;;
52380;SDS011;38310;52.796;6.942;2023-06-10T06:33:26;14.48;;;7.82;;
52380;SDS011;38310;52.796;6.942;2023-06-10T06:35:52;9.60;;;7.63;;
52380;SDS011;38310;52.796;6.942;2023-06-10T06:38:17;14.00;;;7.63;;
52380;SDS011;38310;52.796;6.942;2023-06-10T06:40:43;12.73;;;7.45;;
52380;SDS011;38310;52.796;6.942;2023-06-10T06:43:09;11.52;;;7.30;;
52380;SDS011;38310;52.796;6.942;2023-06-10T06:45:34;10.85;;;7.32;;
52380;SDS011;38310;52.796;6.942;2023-06-10T06:48:00;13.43;;;7.93;;
52380;SDS011;38310;52.796;6.942;2023-06-10T06:50:26;12.25;;;7.38;;
52380;SDS011;38310;52.796;6.942;2023-06-10T06:52:52;13.00;;;7.55;;
52380;SDS011;38310;52.796;6.942;2023-06-10T06:55:17;10.98;;;6.88;;
52380;SDS011;38310;52.796;6.942;2023-06-10T06:57:43;13.85;;;7.10;;
52380;SDS011;38310;52.796;6.942;2023-06-10T07:00:09;12.32;;;6.65;;
52380;SDS011;38310;52.796;6.942;2023-06-10T07:02:35;14.05;;;7.65;;
52380;SDS011;38310;52.796;6.942;2023-06-10T07:05:01;13.30;;;7.32;;
52380;SDS011;38310;52.796;6.942;2023-06-10T07:07:28;13.50;;;7.03;;
52380;SDS011;38310;52.796;6.942;2023-06-10T07:09:54;10.23;;;6.63;;
52380;SDS011;38310;52.796;6.942;2023-06-10T07:12:19;10.70;;;6.18;;
52380;SDS011;38310;52.796;6.942;2023-06-10T07:14:48;11.52;;;6.95;;
52380;SDS011;38310;52.796;6.942;2023-06-10T07:17:15;15.05;;;6.57;;
52380;SDS011;38310;52.796;6.942;2023-06-10T07:19:43;13.85;;;7.55;;
52380;SDS011;38310;52.796;6.942;2023-06-10T07:22:09;13.23;;;6.97;;
52380;SDS011;38310;52.796;6.942;2023-06-10T07:24:35;12.60;;;6.70;;
52380;SDS011;38310;52.796;6.942;2023-06-10T07:27:00;12.07;;;7.65;;
52380;SDS011;38310;52.796;6.942;2023-06-10T07:29:26;14.27;;;7.88;;
52380;SDS011;38310;52.796;6.942;2023-06-10T07:31:52;13.73;;;7.88;;
52380;SDS011;38310;52.796;6.942;2023-06-10T07:34:18;15.85;;;8.23;;
52380;SDS011;38310;52.796;6.942;2023-06-10T07:36:44;14.52;;;8.00;;
52380;SDS011;38310;52.796;6.942;2023-06-10T07:39:10;13.05;;;8.00;;
52380;SDS011;38310;52.796;6.942;2023-06-10T07:41:36;13.65;;;8.40;;
52380;SDS011;38310;52.796;6.942;2023-06-10T07:44:02;15.88;;;10.10;;
52380;SDS011;38310;52.796;6.942;2023-06-10T07:46:28;13.70;;;9.63;;
52380;SDS011;38310;52.796;6.942;2023-06-10T07:48:54;14.82;;;9.90;;
52380;SDS011;38310;52.796;6.942;2023-06-10T07:51:20;15.60;;;9.85;;
52380;SDS011;38310;52.796;6.942;2023-06-10T07:53:46;17.20;;;10.63;;
52380;SDS011;38310;52.796;6.942;2023-06-10T07:56:12;15.90;;;9.48;;
52380;SDS011;38310;52.796;6.942;2023-06-10T07:58:38;14.02;;;10.05;;
52380;SDS011;38310;52.796;6.942;2023-06-10T08:01:03;17.17;;;11.23;;
52380;SDS011;38310;52.796;6.942;2023-06-10T08:03:29;16.63;;;10.18;;
52380;SDS011;38310;52.796;6.942;2023-06-10T08:05:55;15.02;;;10.23;;
52380;SDS011;38310;52.796;6.942;2023-06-10T08:08:21;17.35;;;10.27;;
52380;SDS011;38310;52.796;6.942;2023-06-10T08:10:47;15.30;;;10.77;;
52380;SDS011;38310;52.796;6.942;2023-06-10T08:13:14;17.88;;;11.63;;
52380;SDS011;38310;52.796;6.942;2023-06-10T08:15:40;15.43;;;11.35;;
52380;SDS011;38310;52.796;6.942;2023-06-10T08:18:05;14.98;;;10.93;;
52380;SDS011;38310;52.796;6.942;2023-06-10T08:20:31;16.42;;;11.73;;
52380;SDS011;38310;52.796;6.942;2023-06-10T08:22:57;15.23;;;11.13;;
52380;SDS011;38310;52.796;6.942;2023-06-10T08:25:23;16.08;;;10.60;;
52380;SDS011;38310;52.796;6.942;2023-06-10T08:27:49;16.98;;;11.02;;
52380;SDS011;38310;52.796;6.942;2023-06-10T08:30:15;19.88;;;10.80;;
52380;SDS011;38310;52.796;6.942;2023-06-10T08:32:41;13.57;;;9.85;;
52380;SDS011;38310;52.796;6.942;2023-06-10T08:35:07;12.60;;;8.95;;
52380;SDS011;38310;52.796;6.942;2023-06-10T08:37:33;12.98;;;9.90;;
52380;SDS011;38310;52.796;6.942;2023-06-10T08:39:59;11.98;;;8.50;;
52380;SDS011;38310;52.796;6.942;2023-06-10T08:44:58;11.20;;;8.02;;
52380;SDS011;38310;52.796;6.942;2023-06-10T08:47:29;13.52;;;9.68;;
52380;SDS011;38310;52.796;6.942;2023-06-10T08:50:01;9.98;;;8.13;;
52380;SDS011;38310;52.796;6.942;2023-06-10T08:52:35;10.45;;;7.45;;
52380;SDS011;38310;52.796;6.942;2023-06-10T08:55:14;10.35;;;7.38;;
52380;SDS011;38310;52.796;6.942;2023-06-10T08:57:45;11.90;;;7.70;;
52380;SDS011;38310;52.796;6.942;2023-06-10T09:00:13;9.85;;;6.28;;
52380;SDS011;38310;52.796;6.942;2023-06-10T09:02:39;10.93;;;6.93;;
52380;SDS011;38310;52.796;6.942;2023-06-10T09:05:05;9.65;;;6.53;;
52380;SDS011;38310;52.796;6.942;2023-06-10T09:07:31;13.73;;;7.28;;
52380;SDS011;38310;52.796;6.942;2023-06-10T09:09:59;9.73;;;6.15;;
52380;SDS011;38310;52.796;6.942;2023-06-10T09:12:28;12.68;;;6.25;;
52380;SDS011;38310;52.796;6.942;2023-06-10T09:14:54;12.82;;;5.97;;
52380;SDS011;38310;52.796;6.942;2023-06-10T09:17:21;10.02;;;6.43;;
52380;SDS011;38310;52.796;6.942;2023-06-10T09:19:47;9.73;;;5.43;;
52380;SDS011;38310;52.796;6.942;2023-06-10T09:22:14;7.57;;;6.13;;
52380;SDS011;38310;52.796;6.942;2023-06-10T09:24:39;11.43;;;5.20;;
52380;SDS011;38310;52.796;6.942;2023-06-10T09:27:07;9.82;;;5.63;;
52380;SDS011;38310;52.796;6.942;2023-06-10T09:32:32;11.77;;;4.85;;
52380;SDS011;38310;52.796;6.942;2023-06-10T09:35:08;18.42;;;6.18;;
52380;SDS011;38310;52.796;6.942;2023-06-10T09:37:35;8.23;;;5.03;;
52380;SDS011;38310;52.796;6.942;2023-06-10T09:40:07;9.80;;;4.85;;
52380;SDS011;38310;52.796;6.942;2023-06-10T09:42:35;10.32;;;4.85;;
52380;SDS011;38310;52.796;6.942;2023-06-10T09:45:03;9.13;;;4.45;;
52380;SDS011;38310;52.796;6.942;2023-06-10T09:47:30;8.88;;;4.50;;
52380;SDS011;38310;52.796;6.942;2023-06-10T09:49:56;8.90;;;4.97;;
52380;SDS011;38310;52.796;6.942;2023-06-10T09:52:25;8.45;;;4.57;;
52380;SDS011;38310;52.796;6.942;2023-06-10T09:54:55;7.53;;;4.57;;
52380;SDS011;38310;52.796;6.942;2023-06-10T09:57:25;6.95;;;4.10;;
52380;SDS011;38310;52.796;6.942;2023-06-10T09:59:54;6.32;;;4.10;;
52380;SDS011;38310;52.796;6.942;2023-06-10T10:02:20;6.78;;;4.30;;
52380;SDS011;38310;52.796;6.942;2023-06-10T10:04:46;7.55;;;4.38;;
52380;SDS011;38310;52.796;6.942;2023-06-10T10:07:12;6.10;;;3.60;;
52380;SDS011;38310;52.796;6.942;2023-06-10T10:09:39;6.65;;;3.78;;
52380;SDS011;38310;52.796;6.942;2023-06-10T10:12:08;6.03;;;3.33;;
52380;SDS011;38310;52.796;6.942;2023-06-10T10:14:36;4.63;;;3.30;;
52380;SDS011;38310;52.796;6.942;2023-06-10T10:17:14;6.72;;;4.13;;
52380;SDS011;38310;52.796;6.942;2023-06-10T10:19:46;11.70;;;3.95;;
52380;SDS011;38310;52.796;6.942;2023-06-10T10:22:18;7.13;;;3.58;;
52380;SDS011;38310;52.796;6.942;2023-06-10T10:24:55;5.75;;;2.92;;
52380;SDS011;38310;52.796;6.942;2023-06-10T10:27:57;6.82;;;3.40;;
52380;SDS011;38310;52.796;6.942;2023-06-10T10:30:20;6.13;;;2.92;;
52380;SDS011;38310;52.796;6.942;2023-06-10T10:35:30;5.78;;;3.00;;
52380;SDS011;38310;52.796;6.942;2023-06-10T10:37:57;11.98;;;3.30;;
52380;SDS011;38310;52.796;6.942;2023-06-10T10:40:24;5.80;;;3.08;;
52380;SDS011;38310;52.796;6.942;2023-06-10T10:42:53;5.70;;;2.90;;
52380;SDS011;38310;52.796;6.942;2023-06-10T10:45:21;6.28;;;3.00;;
52380;SDS011;38310;52.796;6.942;2023-06-10T10:47:48;6.60;;;3.33;;
52380;SDS011;38310;52.796;6.942;2023-06-10T10:50:18;4.35;;;3.15;;
52380;SDS011;38310;52.796;6.942;2023-06-10T10:55:23;6.18;;;2.78;;
52380;SDS011;38310;52.796;6.942;2023-06-10T10:57:58;4.90;;;2.90;;
52380;SDS011;38310;52.796;6.942;2023-06-10T11:00:37;4.68;;;3.03;;
52380;SDS011;38310;52.796;6.942;2023-06-10T11:03:09;6.50;;;2.92;;
52380;SDS011;38310;52.796;6.942;2023-06-10T11:05:42;5.25;;;2.90;;
52380;SDS011;38310;52.796;6.942;2023-06-10T11:08:13;7.50;;;2.53;;
52380;SDS011;38310;52.796;6.942;2023-06-10T11:10:51;6.15;;;2.60;;
52380;SDS011;38310;52.796;6.942;2023-06-10T11:13:21;5.22;;;2.63;;
52380;SDS011;38310;52.796;6.942;2023-06-10T11:15:48;4.80;;;2.40;;
52380;SDS011;38310;52.796;6.942;2023-06-10T11:18:24;5.65;;;2.90;;
52380;SDS011;38310;52.796;6.942;2023-06-10T11:21:04;4.38;;;2.53;;
52380;SDS011;38310;52.796;6.942;2023-06-10T11:31:26;5.40;;;3.13;;
52380;SDS011;38310;52.796;6.942;2023-06-10T11:33:54;7.45;;;2.70;;
52380;SDS011;38310;52.796;6.942;2023-06-10T11:36:21;6.38;;;2.92;;
52380;SDS011;38310;52.796;6.942;2023-06-10T11:38:52;4.10;;;1.88;;
52380;SDS011;38310;52.796;6.942;2023-06-10T11:41:20;5.45;;;2.30;;
52380;SDS011;38310;52.796;6.942;2023-06-10T11:43:46;7.28;;;2.33;;
52380;SDS011;38310;52.796;6.942;2023-06-10T11:46:13;4.53;;;2.40;;
52380;SDS011;38310;52.796;6.942;2023-06-10T11:48:39;5.85;;;2.42;;
52380;SDS011;38310;52.796;6.942;2023-06-10T11:51:17;8.32;;;2.60;;
52380;SDS011;38310;52.796;6.942;2023-06-10T11:53:49;4.72;;;2.30;;
52380;SDS011;38310;52.796;6.942;2023-06-10T11:56:26;4.00;;;2.63;;
52380;SDS011;38310;52.796;6.942;2023-06-10T11:58:53;3.97;;;2.38;;
52380;SDS011;38310;52.796;6.942;2023-06-10T12:01:24;4.90;;;2.63;;
52380;SDS011;38310;52.796;6.942;2023-06-10T12:04:02;6.70;;;2.53;;
52380;SDS011;38310;52.796;6.942;2023-06-10T12:06:42;6.03;;;2.83;;
52380;SDS011;38310;52.796;6.942;2023-06-10T12:09:28;4.53;;;2.80;;
52380;SDS011;38310;52.796;6.942;2023-06-10T12:17:15;4.10;;;2.55;;
52380;SDS011;38310;52.796;6.942;2023-06-10T12:19:41;5.38;;;2.58;;
52380;SDS011;38310;52.796;6.942;2023-06-10T12:22:07;4.63;;;2.38;;
52380;SDS011;38310;52.796;6.942;2023-06-10T12:24:33;4.38;;;2.55;;
52380;SDS011;38310;52.796;6.942;2023-06-10T12:27:10;4.95;;;2.47;;
52380;SDS011;38310;52.796;6.942;2023-06-10T12:29:37;3.42;;;2.20;;
52380;SDS011;38310;52.796;6.942;2023-06-10T12:32:03;5.40;;;2.40;;
52380;SDS011;38310;52.796;6.942;2023-06-10T12:34:33;4.68;;;2.30;;
52380;SDS011;38310;52.796;6.942;2023-06-10T12:37:04;7.23;;;2.53;;
52380;SDS011;38310;52.796;6.942;2023-06-10T12:39:31;2.85;;;1.98;;
52380;SDS011;38310;52.796;6.942;2023-06-10T12:41:59;4.50;;;2.33;;
52380;SDS011;38310;52.796;6.942;2023-06-10T12:44:28;3.92;;;2.65;;
52380;SDS011;38310;52.796;6.942;2023-06-10T12:46:57;3.17;;;2.13;;
52380;SDS011;38310;52.796;6.942;2023-06-10T12:49:23;5.47;;;2.47;;
52380;SDS011;38310;52.796;6.942;2023-06-10T12:51:49;5.38;;;2.63;;
52380;SDS011;38310;52.796;6.942;2023-06-10T12:54:15;5.55;;;2.15;;
52380;SDS011;38310;52.796;6.942;2023-06-10T12:56:41;5.82;;;2.30;;
52380;SDS011;38310;52.796;6.942;2023-06-10T12:59:06;5.55;;;2.55;;
52380;SDS011;38310;52.796;6.942;2023-06-10T13:01:32;6.18;;;2.67;;
52380;SDS011;38310;52.796;6.942;2023-06-10T13:03:58;6.72;;;2.92;;
52380;SDS011;38310;52.796;6.942;2023-06-10T13:06:24;3.22;;;2.40;;
52380;SDS011;38310;52.796;6.942;2023-06-10T13:08:50;6.80;;;2.42;;
52380;SDS011;38310;52.796;6.942;2023-06-10T13:11:16;6.10;;;2.85;;
52380;SDS011;38310;52.796;6.942;2023-06-10T13:13:44;4.35;;;2.50;;
52380;SDS011;38310;52.796;6.942;2023-06-10T13:16:11;4.25;;;2.60;;
52380;SDS011;38310;52.796;6.942;2023-06-10T13:18:36;6.53;;;2.72;;
52380;SDS011;38310;52.796;6.942;2023-06-10T13:21:03;6.90;;;2.95;;
52380;SDS011;38310;52.796;6.942;2023-06-10T13:23:29;3.92;;;2.53;;
52380;SDS011;38310;52.796;6.942;2023-06-10T13:25:56;3.75;;;2.60;;
52380;SDS011;38310;52.796;6.942;2023-06-10T13:28:22;4.65;;;2.88;;
52380;SDS011;38310;52.796;6.942;2023-06-10T13:30:48;4.15;;;2.72;;
52380;SDS011;38310;52.796;6.942;2023-06-10T13:33:14;4.65;;;2.67;;
52380;SDS011;38310;52.796;6.942;2023-06-10T13:35:39;6.10;;;2.92;;
52380;SDS011;38310;52.796;6.942;2023-06-10T13:38:06;4.55;;;2.60;;
52380;SDS011;38310;52.796;6.942;2023-06-10T13:40:32;5.35;;;3.00;;
52380;SDS011;38310;52.796;6.942;2023-06-10T13:42:58;4.95;;;2.47;;
52380;SDS011;38310;52.796;6.942;2023-06-10T13:45:24;4.57;;;3.20;;
52380;SDS011;38310;52.796;6.942;2023-06-10T13:47:50;4.78;;;3.47;;
52380;SDS011;38310;52.796;6.942;2023-06-10T13:50:16;4.93;;;3.25;;
52380;SDS011;38310;52.796;6.942;2023-06-10T13:52:42;6.15;;;3.40;;
52380;SDS011;38310;52.796;6.942;2023-06-10T13:55:08;4.57;;;3.65;;
52380;SDS011;38310;52.796;6.942;2023-06-10T13:57:34;5.68;;;3.58;;
52380;SDS011;38310;52.796;6.942;2023-06-10T14:00:00;8.13;;;3.50;;
52380;SDS011;38310;52.796;6.942;2023-06-10T14:02:25;6.38;;;3.45;;
52380;SDS011;38310;52.796;6.942;2023-06-10T14:04:51;5.55;;;3.28;;
52380;SDS011;38310;52.796;6.942;2023-06-10T14:07:17;6.53;;;3.20;;
52380;SDS011;38310;52.796;6.942;2023-06-10T14:09:43;6.32;;;2.95;;
52380;SDS011;38310;52.796;6.942;2023-06-10T14:12:09;5.15;;;3.03;;
52380;SDS011;38310;52.796;6.942;2023-06-10T14:14:35;4.22;;;2.83;;
52380;SDS011;38310;52.796;6.942;2023-06-10T14:17:01;5.72;;;3.00;;
52380;SDS011;38310;52.796;6.942;2023-06-10T14:19:29;5.35;;;2.97;;
52380;SDS011;38310;52.796;6.942;2023-06-10T14:21:54;6.07;;;3.15;;
52380;SDS011;38310;52.796;6.942;2023-06-10T14:24:20;4.95;;;3.50;;
52380;SDS011;38310;52.796;6.942;2023-06-10T14:26:46;6.57;;;2.85;;
52380;SDS011;38310;52.796;6.942;2023-06-10T14:29:12;10.52;;;2.92;;
52380;SDS011;38310;52.796;6.942;2023-06-10T14:31:39;6.03;;;2.70;;
52380;SDS011;38310;52.796;6.942;2023-06-10T14:34:05;4.80;;;2.60;;
52380;SDS011;38310;52.796;6.942;2023-06-10T14:36:33;6.22;;;3.00;;
52380;SDS011;38310;52.796;6.942;2023-06-10T14:38:59;4.47;;;2.45;;
52380;SDS011;38310;52.796;6.942;2023-06-10T14:41:25;7.70;;;2.90;;
52380;SDS011;38310;52.796;6.942;2023-06-10T14:43:51;4.05;;;2.60;;
52380;SDS011;38310;52.796;6.942;2023-06-10T14:46:17;4.80;;;2.63;;
52380;SDS011;38310;52.796;6.942;2023-06-10T14:48:45;4.30;;;2.60;;
52380;SDS011;38310;52.796;6.942;2023-06-10T14:51:11;4.88;;;2.58;;
52380;SDS011;38310;52.796;6.942;2023-06-10T14:53:37;3.92;;;2.60;;
52380;SDS011;38310;52.796;6.942;2023-06-10T14:56:03;3.72;;;2.20;;
52380;SDS011;38310;52.796;6.942;2023-06-10T14:58:29;4.95;;;2.58;;
52380;SDS011;38310;52.796;6.942;2023-06-10T15:00:55;4.45;;;2.72;;
52380;SDS011;38310;52.796;6.942;2023-06-10T15:03:21;3.53;;;2.30;;
52380;SDS011;38310;52.796;6.942;2023-06-10T15:05:46;3.40;;;2.00;;
52380;SDS011;38310;52.796;6.942;2023-06-10T15:08:12;4.13;;;2.22;;